sensor_id;sensor_type;location;lat;lon;timestamp;temperature;humidity
49549;DHT22;35450;44.518;7.466;2022-11-27T00:01:20;7.70;68.80
49549;DHT22;35450;44.518;7.466;2022-11-27T00:04:25;7.60;69.70
49549;DHT22;35450;44.518;7.466;2022-11-27T00:07:29;7.70;70.30
49549;DHT22;35450;44.518;7.466;2022-11-27T00:10:33;7.80;70.80
49549;DHT22;35450;44.518;7.466;2022-11-27T00:13:37;7.80;70.80
49549;DHT22;35450;44.518;7.466;2022-11-27T00:16:41;7.60;70.60
49549;DHT22;35450;44.518;7.466;2022-11-27T00:19:46;7.60;71.40
49549;DHT22;35450;44.518;7.466;2022-11-27T00:22:49;7.60;71.40
49549;DHT22;35450;44.518;7.466;2022-11-27T00:25:53;7.50;71.90
49549;DHT22;35450;44.518;7.466;2022-11-27T00:28:57;7.40;72.10
49549;DHT22;35450;44.518;7.466;2022-11-27T00:32:01;7.50;72.30
49549;DHT22;35450;44.518;7.466;2022-11-27T00:35:06;7.40;72.80
49549;DHT22;35450;44.518;7.466;2022-11-27T00:38:10;7.40;72.80
49549;DHT22;35450;44.518;7.466;2022-11-27T00:41:17;7.50;72.60
49549;DHT22;35450;44.518;7.466;2022-11-27T00:44:21;7.50;72.60
49549;DHT22;35450;44.518;7.466;2022-11-27T00:47:25;7.50;72.40
49549;DHT22;35450;44.518;7.466;2022-11-27T00:50:29;7.50;72.20
49549;DHT22;35450;44.518;7.466;2022-11-27T00:53:35;7.60;72.60
49549;DHT22;35450;44.518;7.466;2022-11-27T00:56:38;7.40;72.90
49549;DHT22;35450;44.518;7.466;2022-11-27T00:59:42;7.40;72.50
49549;DHT22;35450;44.518;7.466;2022-11-27T01:02:46;7.50;72.10
49549;DHT22;35450;44.518;7.466;2022-11-27T01:05:51;7.40;72.00
49549;DHT22;35450;44.518;7.466;2022-11-27T01:08:55;7.50;72.50
49549;DHT22;35450;44.518;7.466;2022-11-27T01:11:59;7.50;72.00
49549;DHT22;35450;44.518;7.466;2022-11-27T01:15:04;7.60;72.70
49549;DHT22;35450;44.518;7.466;2022-11-27T01:18:08;7.50;71.60
49549;DHT22;35450;44.518;7.466;2022-11-27T01:21:14;7.50;71.60
49549;DHT22;35450;44.518;7.466;2022-11-27T01:24:18;7.50;72.40
49549;DHT22;35450;44.518;7.466;2022-11-27T01:27:22;7.50;72.90
49549;DHT22;35450;44.518;7.466;2022-11-27T01:30:26;7.50;73.30
49549;DHT22;35450;44.518;7.466;2022-11-27T01:33:30;7.50;73.60
49549;DHT22;35450;44.518;7.466;2022-11-27T01:36:34;7.60;74.10
49549;DHT22;35450;44.518;7.466;2022-11-27T01:39:38;7.50;74.30
49549;DHT22;35450;44.518;7.466;2022-11-27T01:42:42;7.50;74.30
49549;DHT22;35450;44.518;7.466;2022-11-27T01:45:46;7.60;73.90
49549;DHT22;35450;44.518;7.466;2022-11-27T01:48:53;7.60;73.60
49549;DHT22;35450;44.518;7.466;2022-11-27T01:52:10;7.50;73.70
49549;DHT22;35450;44.518;7.466;2022-11-27T01:55:34;7.40;74.20
49549;DHT22;35450;44.518;7.466;2022-11-27T01:58:39;7.30;73.80
49549;DHT22;35450;44.518;7.466;2022-11-27T02:01:43;7.20;73.20
49549;DHT22;35450;44.518;7.466;2022-11-27T02:04:48;7.20;73.20
49549;DHT22;35450;44.518;7.466;2022-11-27T02:07:52;7.30;73.00
49549;DHT22;35450;44.518;7.466;2022-11-27T02:11:06;7.30;73.50
49549;DHT22;35450;44.518;7.466;2022-11-27T02:14:44;7.30;73.90
49549;DHT22;35450;44.518;7.466;2022-11-27T02:18:13;7.20;73.40
49549;DHT22;35450;44.518;7.466;2022-11-27T02:21:46;7.20;73.90
49549;DHT22;35450;44.518;7.466;2022-11-27T02:31:46;7.20;73.30
49549;DHT22;35450;44.518;7.466;2022-11-27T02:38:14;7.30;73.20
49549;DHT22;35450;44.518;7.466;2022-11-27T02:41:24;7.20;73.70
49549;DHT22;35450;44.518;7.466;2022-11-27T02:44:31;7.20;74.10
49549;DHT22;35450;44.518;7.466;2022-11-27T02:47:38;7.20;73.60
49549;DHT22;35450;44.518;7.466;2022-11-27T02:50:44;7.10;73.70
49549;DHT22;35450;44.518;7.466;2022-11-27T02:53:58;7.00;73.40
49549;DHT22;35450;44.518;7.466;2022-11-27T02:57:04;7.00;73.50
49549;DHT22;35450;44.518;7.466;2022-11-27T03:00:10;7.10;73.50
49549;DHT22;35450;44.518;7.466;2022-11-27T03:03:18;7.00;73.60
49549;DHT22;35450;44.518;7.466;2022-11-27T03:06:30;7.00;73.30
49549;DHT22;35450;44.518;7.466;2022-11-27T03:09:42;7.00;73.00
49549;DHT22;35450;44.518;7.466;2022-11-27T03:12:47;7.10;73.30
49549;DHT22;35450;44.518;7.466;2022-11-27T03:16:02;7.10;73.20
49549;DHT22;35450;44.518;7.466;2022-11-27T03:19:42;7.10;73.10
49549;DHT22;35450;44.518;7.466;2022-11-27T03:22:46;7.00;73.20
49549;DHT22;35450;44.518;7.466;2022-11-27T03:25:50;7.00;73.50
49549;DHT22;35450;44.518;7.466;2022-11-27T03:28:56;7.00;74.90
49549;DHT22;35450;44.518;7.466;2022-11-27T03:32:02;6.90;74.60
49549;DHT22;35450;44.518;7.466;2022-11-27T03:35:08;6.90;73.40
49549;DHT22;35450;44.518;7.466;2022-11-27T03:38:13;6.80;72.90
49549;DHT22;35450;44.518;7.466;2022-11-27T03:44:59;6.90;71.60
49549;DHT22;35450;44.518;7.466;2022-11-27T03:51:40;7.00;71.60
49549;DHT22;35450;44.518;7.466;2022-11-27T04:01:30;7.10;71.90
49549;DHT22;35450;44.518;7.466;2022-11-27T04:04:34;7.10;72.30
49549;DHT22;35450;44.518;7.466;2022-11-27T04:07:38;7.10;72.60
49549;DHT22;35450;44.518;7.466;2022-11-27T04:10:42;7.00;72.70
49549;DHT22;35450;44.518;7.466;2022-11-27T04:13:46;7.00;73.20
49549;DHT22;35450;44.518;7.466;2022-11-27T04:16:50;6.70;73.60
49549;DHT22;35450;44.518;7.466;2022-11-27T04:19:54;6.40;74.60
49549;DHT22;35450;44.518;7.466;2022-11-27T04:22:58;6.30;75.30
49549;DHT22;35450;44.518;7.466;2022-11-27T04:26:02;6.40;75.60
49549;DHT22;35450;44.518;7.466;2022-11-27T04:29:06;6.40;75.40
49549;DHT22;35450;44.518;7.466;2022-11-27T04:32:10;6.50;74.90
49549;DHT22;35450;44.518;7.466;2022-11-27T04:35:14;6.50;74.60
49549;DHT22;35450;44.518;7.466;2022-11-27T04:38:19;6.50;74.60
49549;DHT22;35450;44.518;7.466;2022-11-27T04:41:23;6.50;74.70
49549;DHT22;35450;44.518;7.466;2022-11-27T04:44:27;6.60;74.70
49549;DHT22;35450;44.518;7.466;2022-11-27T04:47:31;6.60;74.70
49549;DHT22;35450;44.518;7.466;2022-11-27T04:50:35;6.50;75.00
49549;DHT22;35450;44.518;7.466;2022-11-27T04:53:39;6.50;75.10
49549;DHT22;35450;44.518;7.466;2022-11-27T04:56:43;6.50;75.00
49549;DHT22;35450;44.518;7.466;2022-11-27T04:59:47;6.50;74.60
49549;DHT22;35450;44.518;7.466;2022-11-27T05:02:51;6.50;74.70
49549;DHT22;35450;44.518;7.466;2022-11-27T05:05:56;6.60;74.60
49549;DHT22;35450;44.518;7.466;2022-11-27T05:09:00;6.70;74.60
49549;DHT22;35450;44.518;7.466;2022-11-27T05:12:05;6.60;74.20
49549;DHT22;35450;44.518;7.466;2022-11-27T05:15:09;6.60;74.00
49549;DHT22;35450;44.518;7.466;2022-11-27T05:18:13;6.60;73.40
49549;DHT22;35450;44.518;7.466;2022-11-27T05:21:17;6.60;73.30
49549;DHT22;35450;44.518;7.466;2022-11-27T05:24:23;6.60;72.90
49549;DHT22;35450;44.518;7.466;2022-11-27T05:27:27;6.50;72.70
49549;DHT22;35450;44.518;7.466;2022-11-27T05:30:31;6.50;72.30
49549;DHT22;35450;44.518;7.466;2022-11-27T05:33:35;6.60;73.50
49549;DHT22;35450;44.518;7.466;2022-11-27T05:36:40;6.60;74.20
49549;DHT22;35450;44.518;7.466;2022-11-27T05:39:44;6.60;73.60
49549;DHT22;35450;44.518;7.466;2022-11-27T05:42:47;6.50;72.90
49549;DHT22;35450;44.518;7.466;2022-11-27T05:45:52;6.50;73.30
49549;DHT22;35450;44.518;7.466;2022-11-27T05:48:56;6.40;73.50
49549;DHT22;35450;44.518;7.466;2022-11-27T05:52:00;6.50;73.70
49549;DHT22;35450;44.518;7.466;2022-11-27T05:55:05;6.50;74.10
49549;DHT22;35450;44.518;7.466;2022-11-27T05:58:09;6.50;73.90
49549;DHT22;35450;44.518;7.466;2022-11-27T06:01:14;6.40;73.90
49549;DHT22;35450;44.518;7.466;2022-11-27T06:04:18;6.50;74.30
49549;DHT22;35450;44.518;7.466;2022-11-27T06:07:22;6.40;74.50
49549;DHT22;35450;44.518;7.466;2022-11-27T06:10:26;6.40;74.40
49549;DHT22;35450;44.518;7.466;2022-11-27T06:13:30;6.40;74.40
49549;DHT22;35450;44.518;7.466;2022-11-27T06:16:35;6.40;74.40
49549;DHT22;35450;44.518;7.466;2022-11-27T06:19:39;6.30;74.70
49549;DHT22;35450;44.518;7.466;2022-11-27T06:22:43;6.40;74.90
49549;DHT22;35450;44.518;7.466;2022-11-27T06:25:47;6.30;74.90
49549;DHT22;35450;44.518;7.466;2022-11-27T06:28:52;6.40;74.70
49549;DHT22;35450;44.518;7.466;2022-11-27T06:31:57;6.30;74.80
49549;DHT22;35450;44.518;7.466;2022-11-27T06:35:01;6.30;74.80
49549;DHT22;35450;44.518;7.466;2022-11-27T06:38:04;6.30;74.90
49549;DHT22;35450;44.518;7.466;2022-11-27T06:41:16;6.30;74.70
49549;DHT22;35450;44.518;7.466;2022-11-27T06:44:21;6.20;74.80
49549;DHT22;35450;44.518;7.466;2022-11-27T06:47:25;6.30;75.20
49549;DHT22;35450;44.518;7.466;2022-11-27T06:50:29;6.30;75.20
49549;DHT22;35450;44.518;7.466;2022-11-27T06:53:35;6.30;75.20
49549;DHT22;35450;44.518;7.466;2022-11-27T06:56:39;6.30;75.30
49549;DHT22;35450;44.518;7.466;2022-11-27T06:59:43;6.20;75.60
49549;DHT22;35450;44.518;7.466;2022-11-27T07:02:51;6.20;76.10
49549;DHT22;35450;44.518;7.466;2022-11-27T07:05:59;6.20;75.80
49549;DHT22;35450;44.518;7.466;2022-11-27T07:09:04;6.40;75.70
49549;DHT22;35450;44.518;7.466;2022-11-27T07:12:08;6.40;75.40
49549;DHT22;35450;44.518;7.466;2022-11-27T07:15:12;6.50;75.20
49549;DHT22;35450;44.518;7.466;2022-11-27T07:18:16;6.60;75.20
49549;DHT22;35450;44.518;7.466;2022-11-27T07:21:21;6.70;75.30
49549;DHT22;35450;44.518;7.466;2022-11-27T07:24:24;6.60;75.70
49549;DHT22;35450;44.518;7.466;2022-11-27T07:27:28;6.60;75.60
49549;DHT22;35450;44.518;7.466;2022-11-27T07:30:32;6.60;76.00
49549;DHT22;35450;44.518;7.466;2022-11-27T07:33:36;6.60;76.00
49549;DHT22;35450;44.518;7.466;2022-11-27T07:36:41;6.50;76.30
49549;DHT22;35450;44.518;7.466;2022-11-27T07:39:44;6.60;76.70
49549;DHT22;35450;44.518;7.466;2022-11-27T07:42:48;6.60;76.80
49549;DHT22;35450;44.518;7.466;2022-11-27T07:45:54;6.60;77.00
49549;DHT22;35450;44.518;7.466;2022-11-27T07:48:58;6.60;77.20
49549;DHT22;35450;44.518;7.466;2022-11-27T07:52:03;6.60;76.90
49549;DHT22;35450;44.518;7.466;2022-11-27T07:55:07;6.50;77.40
49549;DHT22;35450;44.518;7.466;2022-11-27T07:58:11;6.60;77.40
49549;DHT22;35450;44.518;7.466;2022-11-27T08:01:17;6.50;77.40
49549;DHT22;35450;44.518;7.466;2022-11-27T08:04:21;6.50;77.50
49549;DHT22;35450;44.518;7.466;2022-11-27T08:07:27;6.60;77.70
49549;DHT22;35450;44.518;7.466;2022-11-27T08:10:35;6.70;77.70
49549;DHT22;35450;44.518;7.466;2022-11-27T08:13:39;6.90;77.30
49549;DHT22;35450;44.518;7.466;2022-11-27T08:16:43;7.10;76.80
49549;DHT22;35450;44.518;7.466;2022-11-27T08:19:47;7.10;76.30
49549;DHT22;35450;44.518;7.466;2022-11-27T08:22:51;7.30;76.30
49549;DHT22;35450;44.518;7.466;2022-11-27T08:25:55;7.30;76.00
49549;DHT22;35450;44.518;7.466;2022-11-27T08:28:59;7.30;75.70
49549;DHT22;35450;44.518;7.466;2022-11-27T08:32:04;7.40;77.20
49549;DHT22;35450;44.518;7.466;2022-11-27T08:35:09;7.50;77.30
49549;DHT22;35450;44.518;7.466;2022-11-27T08:38:14;7.50;76.50
49549;DHT22;35450;44.518;7.466;2022-11-27T08:41:18;7.60;77.10
49549;DHT22;35450;44.518;7.466;2022-11-27T08:44:22;7.60;76.50
49549;DHT22;35450;44.518;7.466;2022-11-27T08:47:25;7.70;76.20
49549;DHT22;35450;44.518;7.466;2022-11-27T08:50:29;7.80;75.90
49549;DHT22;35450;44.518;7.466;2022-11-27T08:53:34;7.80;75.60
49549;DHT22;35450;44.518;7.466;2022-11-27T08:56:40;7.90;75.60
49549;DHT22;35450;44.518;7.466;2022-11-27T08:59:44;7.90;75.40
49549;DHT22;35450;44.518;7.466;2022-11-27T09:02:47;7.90;75.40
49549;DHT22;35450;44.518;7.466;2022-11-27T09:05:51;8.00;75.50
49549;DHT22;35450;44.518;7.466;2022-11-27T09:08:59;8.00;75.40
49549;DHT22;35450;44.518;7.466;2022-11-27T09:12:04;8.00;75.20
49549;DHT22;35450;44.518;7.466;2022-11-27T09:15:08;8.10;75.10
49549;DHT22;35450;44.518;7.466;2022-11-27T09:18:12;8.10;74.50
49549;DHT22;35450;44.518;7.466;2022-11-27T09:21:18;8.20;74.50
49549;DHT22;35450;44.518;7.466;2022-11-27T09:24:22;8.20;74.60
49549;DHT22;35450;44.518;7.466;2022-11-27T09:27:27;8.20;74.90
49549;DHT22;35450;44.518;7.466;2022-11-27T09:30:31;8.20;75.00
49549;DHT22;35450;44.518;7.466;2022-11-27T09:33:36;8.30;74.80
49549;DHT22;35450;44.518;7.466;2022-11-27T09:36:40;8.30;74.60
49549;DHT22;35450;44.518;7.466;2022-11-27T09:39:44;8.30;74.30
49549;DHT22;35450;44.518;7.466;2022-11-27T09:42:57;8.40;74.20
49549;DHT22;35450;44.518;7.466;2022-11-27T09:46:07;8.40;74.30
49549;DHT22;35450;44.518;7.466;2022-11-27T09:49:23;8.40;74.00
49549;DHT22;35450;44.518;7.466;2022-11-27T09:52:40;8.40;73.80
49549;DHT22;35450;44.518;7.466;2022-11-27T09:55:48;8.40;73.60
49549;DHT22;35450;44.518;7.466;2022-11-27T09:58:57;8.50;73.50
49549;DHT22;35450;44.518;7.466;2022-11-27T10:02:02;8.50;73.60
49549;DHT22;35450;44.518;7.466;2022-11-27T10:18:01;8.70;75.20
49549;DHT22;35450;44.518;7.466;2022-11-27T10:21:31;8.80;75.50
49549;DHT22;35450;44.518;7.466;2022-11-27T10:34:40;8.90;75.70
49549;DHT22;35450;44.518;7.466;2022-11-27T10:38:08;9.00;76.10
49549;DHT22;35450;44.518;7.466;2022-11-27T10:41:26;9.00;76.20
49549;DHT22;35450;44.518;7.466;2022-11-27T10:44:54;9.00;76.40
49549;DHT22;35450;44.518;7.466;2022-11-27T10:48:01;9.10;76.80
49549;DHT22;35450;44.518;7.466;2022-11-27T10:51:30;9.10;77.60
49549;DHT22;35450;44.518;7.466;2022-11-27T10:54:37;9.10;78.30
49549;DHT22;35450;44.518;7.466;2022-11-27T10:58:07;9.10;78.90
49549;DHT22;35450;44.518;7.466;2022-11-27T11:01:17;9.10;79.30
49549;DHT22;35450;44.518;7.466;2022-11-27T11:04:27;9.10;79.40
49549;DHT22;35450;44.518;7.466;2022-11-27T11:07:31;9.10;79.70
49549;DHT22;35450;44.518;7.466;2022-11-27T11:10:41;9.10;79.80
49549;DHT22;35450;44.518;7.466;2022-11-27T11:13:46;9.20;80.40
49549;DHT22;35450;44.518;7.466;2022-11-27T11:16:51;9.20;80.40
49549;DHT22;35450;44.518;7.466;2022-11-27T11:19:55;9.20;80.50
49549;DHT22;35450;44.518;7.466;2022-11-27T11:23:00;9.20;80.80
49549;DHT22;35450;44.518;7.466;2022-11-27T11:26:12;9.20;81.00
49549;DHT22;35450;44.518;7.466;2022-11-27T11:32:36;9.30;81.50
49549;DHT22;35450;44.518;7.466;2022-11-27T11:35:51;9.20;81.40
49549;DHT22;35450;44.518;7.466;2022-11-27T11:38:56;9.30;81.90
49549;DHT22;35450;44.518;7.466;2022-11-27T11:42:00;9.30;82.00
49549;DHT22;35450;44.518;7.466;2022-11-27T11:48:22;9.30;81.80
49549;DHT22;35450;44.518;7.466;2022-11-27T12:12:11;9.50;79.30
49549;DHT22;35450;44.518;7.466;2022-11-27T12:18:51;9.50;79.60
49549;DHT22;35450;44.518;7.466;2022-11-27T12:25:42;9.60;80.00
49549;DHT22;35450;44.518;7.466;2022-11-27T12:45:10;9.60;80.90
49549;DHT22;35450;44.518;7.466;2022-11-27T12:48:22;9.60;80.90
49549;DHT22;35450;44.518;7.466;2022-11-27T12:51:38;9.60;80.90
49549;DHT22;35450;44.518;7.466;2022-11-27T12:58:31;9.70;80.10
49549;DHT22;35450;44.518;7.466;2022-11-27T13:01:41;9.70;80.40
49549;DHT22;35450;44.518;7.466;2022-11-27T13:05:10;9.70;81.00
49549;DHT22;35450;44.518;7.466;2022-11-27T13:08:29;9.70;81.40
49549;DHT22;35450;44.518;7.466;2022-11-27T13:11:39;9.60;81.40
49549;DHT22;35450;44.518;7.466;2022-11-27T13:14:50;9.60;81.90
49549;DHT22;35450;44.518;7.466;2022-11-27T13:18:09;9.60;82.30
49549;DHT22;35450;44.518;7.466;2022-11-27T13:21:19;9.60;82.40
49549;DHT22;35450;44.518;7.466;2022-11-27T13:24:27;9.50;82.80
49549;DHT22;35450;44.518;7.466;2022-11-27T13:27:33;9.60;82.70
49549;DHT22;35450;44.518;7.466;2022-11-27T13:30:38;9.70;82.40
49549;DHT22;35450;44.518;7.466;2022-11-27T13:33:43;9.60;82.40
49549;DHT22;35450;44.518;7.466;2022-11-27T13:37:05;9.50;82.60
49549;DHT22;35450;44.518;7.466;2022-11-27T13:40:18;9.50;83.30
49549;DHT22;35450;44.518;7.466;2022-11-27T13:43:27;9.60;83.00
49549;DHT22;35450;44.518;7.466;2022-11-27T13:46:43;9.70;82.90
49549;DHT22;35450;44.518;7.466;2022-11-27T13:50:01;9.70;82.40
49549;DHT22;35450;44.518;7.466;2022-11-27T13:53:05;9.80;82.50
49549;DHT22;35450;44.518;7.466;2022-11-27T13:56:09;9.90;82.50
49549;DHT22;35450;44.518;7.466;2022-11-27T14:02:21;9.80;82.70
49549;DHT22;35450;44.518;7.466;2022-11-27T14:05:39;9.80;83.00
49549;DHT22;35450;44.518;7.466;2022-11-27T14:11:56;9.90;83.30
49549;DHT22;35450;44.518;7.466;2022-11-27T14:15:11;9.90;83.00
49549;DHT22;35450;44.518;7.466;2022-11-27T14:18:23;9.90;82.20
49549;DHT22;35450;44.518;7.466;2022-11-27T14:24:40;9.60;82.90
49549;DHT22;35450;44.518;7.466;2022-11-27T14:28:13;9.70;83.60
49549;DHT22;35450;44.518;7.466;2022-11-27T14:31:28;9.70;83.80
49549;DHT22;35450;44.518;7.466;2022-11-27T14:34:33;9.70;84.10
49549;DHT22;35450;44.518;7.466;2022-11-27T14:37:37;9.70;84.00
49549;DHT22;35450;44.518;7.466;2022-11-27T14:40:41;9.60;84.40
49549;DHT22;35450;44.518;7.466;2022-11-27T14:43:45;9.50;85.20
49549;DHT22;35450;44.518;7.466;2022-11-27T14:46:50;9.40;85.60
49549;DHT22;35450;44.518;7.466;2022-11-27T14:49:54;9.40;85.60
49549;DHT22;35450;44.518;7.466;2022-11-27T14:52:59;9.40;86.50
49549;DHT22;35450;44.518;7.466;2022-11-27T14:56:03;9.40;86.10
49549;DHT22;35450;44.518;7.466;2022-11-27T14:59:16;9.40;86.30
49549;DHT22;35450;44.518;7.466;2022-11-27T15:02:25;9.40;85.90
49549;DHT22;35450;44.518;7.466;2022-11-27T15:05:35;9.40;85.80
49549;DHT22;35450;44.518;7.466;2022-11-27T15:08:39;9.50;86.20
49549;DHT22;35450;44.518;7.466;2022-11-27T15:11:43;9.60;86.60
49549;DHT22;35450;44.518;7.466;2022-11-27T15:18:05;9.70;87.20
49549;DHT22;35450;44.518;7.466;2022-11-27T15:21:12;9.60;87.20
49549;DHT22;35450;44.518;7.466;2022-11-27T15:27:31;9.60;87.50
49549;DHT22;35450;44.518;7.466;2022-11-27T15:30:43;9.50;87.70
49549;DHT22;35450;44.518;7.466;2022-11-27T15:34:18;9.50;87.60
49549;DHT22;35450;44.518;7.466;2022-11-27T15:37:26;9.50;87.40
49549;DHT22;35450;44.518;7.466;2022-11-27T15:40:33;9.50;87.30
49549;DHT22;35450;44.518;7.466;2022-11-27T15:43:38;9.50;87.40
49549;DHT22;35450;44.518;7.466;2022-11-27T15:46:42;9.40;87.40
49549;DHT22;35450;44.518;7.466;2022-11-27T15:49:46;9.30;87.70
49549;DHT22;35450;44.518;7.466;2022-11-27T15:52:50;9.30;87.70
49549;DHT22;35450;44.518;7.466;2022-11-27T15:55:56;9.30;87.60
49549;DHT22;35450;44.518;7.466;2022-11-27T15:59:01;9.30;87.00
49549;DHT22;35450;44.518;7.466;2022-11-27T16:02:06;9.30;87.10
49549;DHT22;35450;44.518;7.466;2022-11-27T16:05:10;9.20;87.10
49549;DHT22;35450;44.518;7.466;2022-11-27T16:08:14;9.20;87.20
49549;DHT22;35450;44.518;7.466;2022-11-27T16:11:18;9.20;87.20
49549;DHT22;35450;44.518;7.466;2022-11-27T16:14:22;9.20;87.30
49549;DHT22;35450;44.518;7.466;2022-11-27T16:17:26;9.20;87.40
49549;DHT22;35450;44.518;7.466;2022-11-27T16:20:30;9.20;87.60
49549;DHT22;35450;44.518;7.466;2022-11-27T16:23:35;9.10;87.70
49549;DHT22;35450;44.518;7.466;2022-11-27T16:26:40;9.10;87.50
49549;DHT22;35450;44.518;7.466;2022-11-27T16:29:43;9.10;87.80
49549;DHT22;35450;44.518;7.466;2022-11-27T16:32:48;9.10;87.80
49549;DHT22;35450;44.518;7.466;2022-11-27T16:35:52;9.10;87.80
49549;DHT22;35450;44.518;7.466;2022-11-27T16:38:56;9.00;88.20
49549;DHT22;35450;44.518;7.466;2022-11-27T16:42:01;8.90;88.50
49549;DHT22;35450;44.518;7.466;2022-11-27T16:45:05;8.70;88.70
49549;DHT22;35450;44.518;7.466;2022-11-27T16:48:09;8.80;88.80
49549;DHT22;35450;44.518;7.466;2022-11-27T16:51:14;8.80;88.80
49549;DHT22;35450;44.518;7.466;2022-11-27T16:54:19;8.90;88.60
49549;DHT22;35450;44.518;7.466;2022-11-27T16:57:23;8.90;88.70
49549;DHT22;35450;44.518;7.466;2022-11-27T17:00:27;8.90;88.60
49549;DHT22;35450;44.518;7.466;2022-11-27T17:03:31;8.80;88.40
49549;DHT22;35450;44.518;7.466;2022-11-27T17:06:37;8.80;88.20
49549;DHT22;35450;44.518;7.466;2022-11-27T17:09:41;8.80;87.80
49549;DHT22;35450;44.518;7.466;2022-11-27T17:12:45;8.70;87.80
49549;DHT22;35450;44.518;7.466;2022-11-27T17:15:49;8.70;88.00
49549;DHT22;35450;44.518;7.466;2022-11-27T17:18:53;8.70;88.00
49549;DHT22;35450;44.518;7.466;2022-11-27T17:21:57;8.60;88.10
49549;DHT22;35450;44.518;7.466;2022-11-27T17:25:02;8.70;88.40
49549;DHT22;35450;44.518;7.466;2022-11-27T17:28:08;8.60;88.70
49549;DHT22;35450;44.518;7.466;2022-11-27T17:31:18;8.50;88.60
49549;DHT22;35450;44.518;7.466;2022-11-27T17:34:22;8.40;88.50
49549;DHT22;35450;44.518;7.466;2022-11-27T17:37:26;8.40;89.10
49549;DHT22;35450;44.518;7.466;2022-11-27T17:40:30;8.40;89.30
49549;DHT22;35450;44.518;7.466;2022-11-27T17:43:36;8.40;89.00
49549;DHT22;35450;44.518;7.466;2022-11-27T17:46:40;8.40;88.80
49549;DHT22;35450;44.518;7.466;2022-11-27T17:49:44;8.40;88.80
49549;DHT22;35450;44.518;7.466;2022-11-27T17:52:51;8.30;89.00
49549;DHT22;35450;44.518;7.466;2022-11-27T17:56:01;8.30;89.30
49549;DHT22;35450;44.518;7.466;2022-11-27T17:59:05;8.30;89.30
49549;DHT22;35450;44.518;7.466;2022-11-27T18:02:10;8.30;89.20
49549;DHT22;35450;44.518;7.466;2022-11-27T18:05:14;8.30;89.40
49549;DHT22;35450;44.518;7.466;2022-11-27T18:08:18;8.30;89.40
49549;DHT22;35450;44.518;7.466;2022-11-27T18:11:24;8.40;89.50
49549;DHT22;35450;44.518;7.466;2022-11-27T18:14:28;8.40;89.50
49549;DHT22;35450;44.518;7.466;2022-11-27T18:17:33;8.40;89.60
49549;DHT22;35450;44.518;7.466;2022-11-27T18:20:37;8.40;89.50
49549;DHT22;35450;44.518;7.466;2022-11-27T18:23:41;8.40;89.60
49549;DHT22;35450;44.518;7.466;2022-11-27T18:26:46;8.30;89.60
49549;DHT22;35450;44.518;7.466;2022-11-27T18:29:50;8.30;89.80
49549;DHT22;35450;44.518;7.466;2022-11-27T18:32:54;8.30;89.50
49549;DHT22;35450;44.518;7.466;2022-11-27T18:35:58;8.30;90.00
49549;DHT22;35450;44.518;7.466;2022-11-27T18:39:02;8.30;89.80
49549;DHT22;35450;44.518;7.466;2022-11-27T18:42:07;8.30;89.90
49549;DHT22;35450;44.518;7.466;2022-11-27T18:45:11;8.30;89.90
49549;DHT22;35450;44.518;7.466;2022-11-27T18:48:15;8.30;89.90
49549;DHT22;35450;44.518;7.466;2022-11-27T18:51:23;8.30;89.90
49549;DHT22;35450;44.518;7.466;2022-11-27T18:54:28;8.30;89.80
49549;DHT22;35450;44.518;7.466;2022-11-27T18:57:32;8.20;89.90
49549;DHT22;35450;44.518;7.466;2022-11-27T19:00:36;8.20;89.90
49549;DHT22;35450;44.518;7.466;2022-11-27T19:03:41;8.20;90.10
49549;DHT22;35450;44.518;7.466;2022-11-27T19:06:45;8.20;90.10
49549;DHT22;35450;44.518;7.466;2022-11-27T19:09:50;8.20;90.20
49549;DHT22;35450;44.518;7.466;2022-11-27T19:12:53;8.20;90.30
49549;DHT22;35450;44.518;7.466;2022-11-27T19:15:58;8.10;90.40
49549;DHT22;35450;44.518;7.466;2022-11-27T19:19:04;8.10;90.50
49549;DHT22;35450;44.518;7.466;2022-11-27T19:22:09;8.10;90.50
49549;DHT22;35450;44.518;7.466;2022-11-27T19:25:14;8.00;90.60
49549;DHT22;35450;44.518;7.466;2022-11-27T19:28:18;8.00;90.60
49549;DHT22;35450;44.518;7.466;2022-11-27T19:31:23;8.10;90.70
49549;DHT22;35450;44.518;7.466;2022-11-27T19:34:27;8.20;90.70
49549;DHT22;35450;44.518;7.466;2022-11-27T19:37:31;8.20;90.30
49549;DHT22;35450;44.518;7.466;2022-11-27T19:40:35;8.20;90.20
49549;DHT22;35450;44.518;7.466;2022-11-27T19:43:41;8.10;90.40
49549;DHT22;35450;44.518;7.466;2022-11-27T19:46:45;8.10;90.40
49549;DHT22;35450;44.518;7.466;2022-11-27T19:49:49;8.10;90.30
49549;DHT22;35450;44.518;7.466;2022-11-27T19:52:53;8.10;90.40
49549;DHT22;35450;44.518;7.466;2022-11-27T19:55:58;8.00;90.50
49549;DHT22;35450;44.518;7.466;2022-11-27T19:59:02;8.00;90.70
49549;DHT22;35450;44.518;7.466;2022-11-27T20:02:05;7.90;90.70
49549;DHT22;35450;44.518;7.466;2022-11-27T20:05:12;8.00;90.50
49549;DHT22;35450;44.518;7.466;2022-11-27T20:08:16;7.90;90.30
49549;DHT22;35450;44.518;7.466;2022-11-27T20:11:22;7.90;90.30
49549;DHT22;35450;44.518;7.466;2022-11-27T20:14:26;7.90;90.20
49549;DHT22;35450;44.518;7.466;2022-11-27T20:17:30;7.90;90.20
49549;DHT22;35450;44.518;7.466;2022-11-27T20:20:34;7.80;90.20
49549;DHT22;35450;44.518;7.466;2022-11-27T20:23:39;7.80;90.40
49549;DHT22;35450;44.518;7.466;2022-11-27T20:26:43;7.80;90.40
49549;DHT22;35450;44.518;7.466;2022-11-27T20:29:47;7.80;90.30
49549;DHT22;35450;44.518;7.466;2022-11-27T20:32:51;7.80;90.20
49549;DHT22;35450;44.518;7.466;2022-11-27T20:35:57;7.80;90.30
49549;DHT22;35450;44.518;7.466;2022-11-27T20:39:01;7.80;90.30
49549;DHT22;35450;44.518;7.466;2022-11-27T20:42:06;7.70;90.20
49549;DHT22;35450;44.518;7.466;2022-11-27T20:45:10;7.70;90.30
49549;DHT22;35450;44.518;7.466;2022-11-27T20:48:15;7.70;90.40
49549;DHT22;35450;44.518;7.466;2022-11-27T20:51:21;7.60;90.50
49549;DHT22;35450;44.518;7.466;2022-11-27T20:54:26;7.50;90.50
49549;DHT22;35450;44.518;7.466;2022-11-27T20:57:32;7.50;90.50
49549;DHT22;35450;44.518;7.466;2022-11-27T21:00:36;7.50;90.30
49549;DHT22;35450;44.518;7.466;2022-11-27T21:03:40;7.40;90.70
49549;DHT22;35450;44.518;7.466;2022-11-27T21:06:44;7.40;90.40
49549;DHT22;35450;44.518;7.466;2022-11-27T21:09:48;7.50;90.60
49549;DHT22;35450;44.518;7.466;2022-11-27T21:12:53;7.50;90.60
49549;DHT22;35450;44.518;7.466;2022-11-27T21:15:57;7.40;90.50
49549;DHT22;35450;44.518;7.466;2022-11-27T21:19:04;7.40;90.30
49549;DHT22;35450;44.518;7.466;2022-11-27T21:22:09;7.40;90.30
49549;DHT22;35450;44.518;7.466;2022-11-27T21:25:12;7.40;90.40
49549;DHT22;35450;44.518;7.466;2022-11-27T21:28:17;7.40;90.40
49549;DHT22;35450;44.518;7.466;2022-11-27T21:31:23;7.40;90.30
49549;DHT22;35450;44.518;7.466;2022-11-27T21:34:28;7.40;90.30
49549;DHT22;35450;44.518;7.466;2022-11-27T21:37:32;7.30;90.40
49549;DHT22;35450;44.518;7.466;2022-11-27T21:40:36;7.40;90.30
49549;DHT22;35450;44.518;7.466;2022-11-27T21:43:40;7.40;90.10
49549;DHT22;35450;44.518;7.466;2022-11-27T21:46:45;7.40;90.00
49549;DHT22;35450;44.518;7.466;2022-11-27T21:49:49;7.40;90.10
49549;DHT22;35450;44.518;7.466;2022-11-27T21:52:54;7.30;90.20